createdAt,value
2024-04-19T00:02:14.392Z,3.97
2024-04-19T00:04:45.698Z,3.67
2024-04-19T00:07:13.151Z,3.60
2024-04-19T00:09:40.578Z,3.92
2024-04-19T00:12:08.157Z,3.80
2024-04-19T00:14:35.438Z,3.80
2024-04-19T00:17:03.057Z,3.70
2024-04-19T00:19:30.640Z,3.85
2024-04-19T00:21:57.894Z,4.30
2024-04-19T00:24:25.226Z,3.90
2024-04-19T00:26:52.585Z,3.90
2024-04-19T00:29:22.302Z,4.38
2024-04-19T00:31:49.615Z,4.30
2024-04-19T00:34:16.991Z,4.30
2024-04-19T00:36:44.716Z,4.60
2024-04-19T00:39:12.157Z,4.00
2024-04-19T00:41:39.491Z,4.25
2024-04-19T00:44:06.778Z,4.68
2024-04-19T00:46:34.641Z,4.40
2024-04-19T00:49:02.115Z,4.45
2024-04-19T00:51:29.225Z,4.30
2024-04-19T00:53:56.177Z,4.60
2024-04-19T00:56:23.340Z,4.32
2024-04-19T00:58:51.468Z,4.47
2024-04-19T01:01:19.295Z,4.32
2024-04-19T01:03:46.529Z,4.30
2024-04-19T01:06:13.590Z,4.28
2024-04-19T01:08:40.397Z,4.40
2024-04-19T01:11:07.549Z,4.00
2024-04-19T01:13:35.806Z,3.95
2024-04-19T01:16:02.901Z,4.40
2024-04-19T01:18:30.028Z,4.90
2024-04-19T01:20:57.029Z,4.13
2024-04-19T01:23:24.338Z,4.47
2024-04-19T01:25:54.793Z,4.60
2024-04-19T01:28:21.938Z,4.93
2024-04-19T01:30:49.039Z,5.07
2024-04-19T01:33:16.349Z,5.43
2024-04-19T01:35:43.505Z,5.55
2024-04-19T01:38:11.403Z,5.35
2024-04-19T01:40:38.539Z,5.40
2024-04-19T01:43:05.530Z,6.03
2024-04-19T01:45:32.695Z,5.40
2024-04-19T01:48:01.603Z,5.82
2024-04-19T01:50:28.765Z,6.10
2024-04-19T01:52:57.555Z,6.00
2024-04-19T01:55:24.672Z,6.07
2024-04-19T01:57:51.619Z,5.65
2024-04-19T02:00:18.696Z,6.88
2024-04-19T02:02:45.645Z,7.05
2024-04-19T02:05:13.226Z,6.72
2024-04-19T02:07:39.930Z,6.05
2024-04-19T02:10:08.908Z,6.82
2024-04-19T02:12:35.982Z,6.30
2024-04-19T02:15:03.018Z,6.20
2024-04-19T02:17:30.379Z,6.32
2024-04-19T02:19:59.451Z,6.40
2024-04-19T02:22:26.466Z,7.03
2024-04-19T02:24:53.426Z,6.63
2024-04-19T02:27:40.449Z,6.80
2024-04-19T02:30:30.156Z,7.37
2024-04-19T02:32:57.239Z,7.28
2024-04-19T02:35:24.447Z,6.53
2024-04-19T02:37:51.495Z,6.97
2024-04-19T02:40:18.737Z,7.13
2024-04-19T02:42:46.047Z,6.70
2024-04-19T02:45:15.545Z,6.70
2024-04-19T02:47:42.568Z,6.55
2024-04-19T02:50:11.785Z,6.95
2024-04-19T02:52:38.760Z,6.40
2024-04-19T02:55:06.401Z,6.28
2024-04-19T02:57:33.590Z,8.37
2024-04-19T03:00:00.578Z,7.43
2024-04-19T03:02:27.636Z,7.43
2024-04-19T03:05:02.535Z,7.10
2024-04-19T03:07:29.478Z,6.22
2024-04-19T03:09:56.450Z,6.57
2024-04-19T03:12:23.610Z,7.30
2024-04-19T03:14:50.611Z,7.60
2024-04-19T03:17:18.037Z,7.15
2024-04-19T03:19:45.347Z,6.87
2024-04-19T03:22:12.270Z,6.57
2024-04-19T03:24:39.279Z,7.40
2024-04-19T03:27:06.459Z,7.47
2024-04-19T03:29:33.391Z,7.20
2024-04-19T03:32:00.581Z,7.20
2024-04-19T03:34:27.644Z,7.13
2024-04-19T03:36:54.707Z,7.22
2024-04-19T03:39:21.673Z,7.90
2024-04-19T03:41:48.658Z,7.03
2024-04-19T03:44:35.572Z,7.35
2024-04-19T03:47:02.894Z,7.00
2024-04-19T03:49:29.873Z,7.53
2024-04-19T03:52:00.518Z,7.40
2024-04-19T03:54:27.485Z,7.13
2024-04-19T03:56:54.453Z,6.65
2024-04-19T03:59:21.403Z,7.82
2024-04-19T04:01:50.655Z,7.05
2024-04-19T04:04:17.603Z,6.78
2024-04-19T04:06:44.627Z,6.93
2024-04-19T04:09:11.589Z,7.87
2024-04-19T04:11:38.569Z,7.63
2024-04-19T04:14:08.202Z,7.50
2024-04-19T04:16:35.221Z,8.30
2024-04-19T04:19:02.154Z,7.95
2024-04-19T04:21:31.647Z,7.72
2024-04-19T04:23:58.570Z,7.70
2024-04-19T04:26:25.717Z,8.27
2024-04-19T04:28:52.693Z,7.30
2024-04-19T04:31:19.648Z,7.78
2024-04-19T04:33:46.646Z,7.28
2024-04-19T04:36:13.657Z,7.78
2024-04-19T04:38:40.499Z,8.30
2024-04-19T04:41:07.639Z,7.22
2024-04-19T04:43:34.612Z,8.10
2024-04-19T04:46:01.580Z,8.30
2024-04-19T04:48:29.347Z,7.55
2024-04-19T04:50:56.654Z,6.88
2024-04-19T04:53:24.267Z,7.22
2024-04-19T04:55:51.612Z,7.88
2024-04-19T04:58:18.942Z,7.70
2024-04-19T05:00:48.535Z,7.38
2024-04-19T05:03:15.945Z,7.37
2024-04-19T05:05:43.342Z,7.65
2024-04-19T05:08:12.707Z,6.90
2024-04-19T05:10:39.727Z,7.75
2024-04-19T05:13:06.651Z,7.03
2024-04-19T05:15:33.714Z,7.63
2024-04-19T05:18:00.823Z,6.55
2024-04-19T05:20:28.310Z,7.10
2024-04-19T05:22:55.711Z,6.57
2024-04-19T05:25:23.074Z,6.03
2024-04-19T05:27:50.589Z,6.47
2024-04-19T05:30:18.301Z,6.25
2024-04-19T05:32:45.705Z,5.90
2024-04-19T05:35:13.092Z,6.53
2024-04-19T05:37:40.757Z,6.00
2024-04-19T05:40:08.424Z,5.37
2024-04-19T05:42:35.874Z,6.10
2024-04-19T05:45:03.738Z,5.60
2024-04-19T05:47:31.067Z,5.25
2024-04-19T05:49:58.381Z,6.05
2024-04-19T05:52:25.658Z,5.30
2024-04-19T05:54:53.271Z,4.97
2024-04-19T05:57:20.678Z,5.10
2024-04-19T05:59:50.671Z,5.07
2024-04-19T06:02:17.599Z,4.60
2024-04-19T06:04:48.762Z,5.35
2024-04-19T06:07:22.535Z,4.65
2024-04-19T06:09:50.044Z,4.93
2024-04-19T06:12:17.786Z,4.68
2024-04-19T06:14:45.181Z,4.68
2024-04-19T06:17:14.705Z,4.17
2024-04-19T06:19:41.636Z,4.20
2024-04-19T06:22:10.112Z,3.80
2024-04-19T06:24:42.156Z,4.00
2024-04-19T06:27:09.558Z,4.03
2024-04-19T06:29:37.010Z,4.13
2024-04-19T06:32:04.445Z,3.90
2024-04-19T06:34:31.834Z,3.95
2024-04-19T06:37:00.454Z,3.80
2024-04-19T06:39:27.969Z,4.07
2024-04-19T06:41:55.510Z,3.25
2024-04-19T06:44:22.897Z,3.70
2024-04-19T06:46:50.329Z,3.47
2024-04-19T06:49:18.214Z,3.58
2024-04-19T06:51:45.739Z,3.65
2024-04-19T06:54:13.101Z,3.47
2024-04-19T06:56:42.457Z,3.40
2024-04-19T06:59:09.936Z,3.40
2024-04-19T07:01:37.824Z,3.35
2024-04-19T07:04:05.467Z,3.50
2024-04-19T07:06:40.644Z,3.58
2024-04-19T07:09:09.992Z,3.22
2024-04-19T07:11:39.823Z,3.38
2024-04-19T07:14:07.214Z,3.40
2024-04-19T07:16:36.123Z,3.67
2024-04-19T07:19:03.617Z,3.15
2024-04-19T07:21:30.992Z,3.40
2024-04-19T07:23:58.382Z,3.15
2024-04-19T07:26:26.229Z,3.17
2024-04-19T07:28:53.592Z,3.42
2024-04-19T07:31:21.200Z,3.78
2024-04-19T07:33:50.898Z,3.83
2024-04-19T07:36:18.450Z,3.72
2024-04-19T07:38:46.237Z,3.53
2024-04-19T07:41:14.230Z,3.30
2024-04-19T07:43:49.402Z,3.70
2024-04-19T07:46:22.443Z,3.40
2024-04-19T07:48:49.909Z,3.75
2024-04-19T07:51:17.171Z,3.42
2024-04-19T07:53:46.815Z,3.35
2024-04-19T07:56:14.267Z,3.75
2024-04-19T07:58:42.431Z,3.63
2024-04-19T08:01:09.881Z,4.07
2024-04-19T08:03:40.507Z,3.92
2024-04-19T08:06:08.273Z,3.78
2024-04-19T08:08:35.780Z,4.03
2024-04-19T08:11:03.235Z,4.05
2024-04-19T08:13:30.669Z,4.13
2024-04-19T08:16:00.062Z,4.65
2024-04-19T08:18:27.566Z,4.53
2024-04-19T08:20:56.720Z,3.95
2024-04-19T08:23:27.750Z,4.50
2024-04-19T08:25:55.007Z,3.90
2024-04-19T08:28:26.604Z,4.28
2024-04-19T08:30:54.593Z,3.90
2024-04-19T08:33:23.304Z,4.43
2024-04-19T08:35:58.845Z,4.75
2024-04-19T08:38:26.979Z,4.38
2024-04-19T08:40:58.108Z,4.93
2024-04-19T08:43:25.694Z,4.47
2024-04-19T08:45:58.912Z,4.85
2024-04-19T08:48:30.318Z,4.17
2024-04-19T08:51:03.321Z,4.15
2024-04-19T08:53:31.402Z,3.92
2024-04-19T08:55:59.779Z,4.43
2024-04-19T08:58:27.183Z,3.88
2024-04-19T09:00:54.673Z,4.40
2024-04-19T09:03:22.449Z,3.90
2024-04-19T09:05:49.932Z,4.05
2024-04-19T09:08:17.505Z,4.45
2024-04-19T09:10:44.846Z,3.90
2024-04-19T09:13:12.535Z,3.77
2024-04-19T09:15:40.406Z,3.90
2024-04-19T09:18:08.007Z,3.45
2024-04-19T09:20:35.387Z,3.90
2024-04-19T09:23:03.812Z,3.50
2024-04-19T09:25:31.228Z,3.58
2024-04-19T09:27:59.248Z,3.35
2024-04-19T09:30:26.674Z,3.17
2024-04-19T09:32:55.281Z,3.20
2024-04-19T09:35:26.742Z,3.13
2024-04-19T09:37:54.781Z,2.83
2024-04-19T09:40:25.894Z,3.10
2024-04-19T09:42:53.475Z,3.08
2024-04-19T09:45:22.745Z,3.33
2024-04-19T09:47:55.001Z,2.80
2024-04-19T09:50:25.716Z,2.55
2024-04-19T09:52:54.727Z,2.80
2024-04-19T09:55:27.573Z,2.95
2024-04-19T09:57:55.198Z,2.70
2024-04-19T10:00:27.358Z,2.88
2024-04-19T10:02:57.570Z,2.67
2024-04-19T10:05:25.266Z,2.92
2024-04-19T10:07:52.902Z,2.80
2024-04-19T10:10:20.187Z,2.65
2024-04-19T10:12:48.110Z,3.10
2024-04-19T10:15:15.571Z,2.83
2024-04-19T10:17:43.267Z,2.90
2024-04-19T10:20:12.867Z,2.70
2024-04-19T10:22:43.417Z,2.30
2024-04-19T10:25:10.578Z,2.45
2024-04-19T10:27:39.250Z,2.70
2024-04-19T10:30:15.822Z,2.80
2024-04-19T10:32:53.900Z,2.25
2024-04-19T10:35:22.846Z,1.55
2024-04-19T10:37:50.243Z,1.30
2024-04-19T10:40:18.640Z,1.23
2024-04-19T10:42:46.127Z,0.90
2024-04-19T10:45:15.110Z,0.30
2024-04-19T10:47:43.256Z,0.30
2024-04-19T10:50:15.207Z,0.20
2024-04-19T10:52:42.084Z,0.50
2024-04-19T10:55:09.013Z,0.28
2024-04-19T10:57:35.936Z,0.30
2024-04-19T11:00:03.318Z,0.10
2024-04-19T11:02:31.722Z,0.10
2024-04-19T11:05:01.309Z,0.10
2024-04-19T11:07:28.657Z,0.40
2024-04-19T11:09:56.046Z,0.10
2024-04-19T11:12:24.357Z,0.10
2024-04-19T11:14:51.772Z,0.30
2024-04-19T11:17:19.575Z,0.50
2024-04-19T11:19:48.340Z,0.10
2024-04-19T11:22:16.482Z,0.10
2024-04-19T11:24:44.025Z,0.10
2024-04-19T11:27:11.385Z,0.10
2024-04-19T11:29:38.720Z,0.40
2024-04-19T11:32:07.538Z,0.50
2024-04-19T11:34:35.214Z,0.08
2024-04-19T11:37:05.146Z,0.20
2024-04-19T11:39:32.912Z,0.10
2024-04-19T11:42:00.358Z,0.20
2024-04-19T11:44:27.871Z,0.20
2024-04-19T11:46:55.659Z,0.10
2024-04-19T11:49:24.759Z,0.10
2024-04-19T11:51:52.191Z,0.10
2024-04-19T11:54:22.086Z,0.10
2024-04-19T11:56:49.458Z,0.20
2024-04-19T11:59:23.368Z,0.05
2024-04-19T12:01:52.846Z,0.20
2024-04-19T12:04:20.615Z,0.10
2024-04-19T12:06:48.681Z,0.17
2024-04-19T12:09:16.281Z,0.20
2024-04-19T12:12:06.201Z,0.10
2024-04-19T12:15:22.566Z,0.20
2024-04-19T12:17:27.324Z,0.08
2024-04-19T12:20:00.520Z,0.20
2024-04-19T12:22:32.682Z,0.00
2024-04-19T12:25:02.913Z,0.10
2024-04-19T12:27:31.588Z,0.10
2024-04-19T12:29:59.118Z,0.10
2024-04-19T12:32:26.906Z,0.35
2024-04-19T12:34:56.517Z,0.10
2024-04-19T12:37:23.907Z,0.10
2024-04-19T12:39:51.669Z,0.10
2024-04-19T12:42:19.156Z,0.10
2024-04-19T12:44:49.263Z,0.10
2024-04-19T12:47:18.371Z,0.10
2024-04-19T12:49:45.958Z,0.10
2024-04-19T12:52:13.360Z,0.20
2024-04-19T12:54:41.097Z,0.10
2024-04-19T12:57:10.796Z,0.08
2024-04-19T12:59:38.232Z,0.20
2024-04-19T13:02:09.819Z,0.10
2024-04-19T13:04:37.212Z,0.30
2024-04-19T13:07:04.678Z,0.10
2024-04-19T13:09:34.393Z,0.45
2024-04-19T13:12:01.762Z,0.10
2024-04-19T13:14:29.121Z,0.30
2024-04-19T13:16:56.754Z,0.30
2024-04-19T13:19:24.153Z,0.20
2024-04-19T13:21:51.709Z,0.90
2024-04-19T13:24:20.308Z,0.20
2024-04-19T13:26:47.638Z,0.20
2024-04-19T13:29:15.014Z,0.50
2024-04-19T13:31:42.319Z,0.40
2024-04-19T13:34:09.648Z,0.20
2024-04-19T13:36:37.179Z,0.10
2024-04-19T13:39:04.642Z,0.40
2024-04-19T13:41:31.959Z,0.15
2024-04-19T13:43:59.330Z,0.50
2024-04-19T13:46:26.651Z,0.10
2024-04-19T13:48:54.319Z,0.10
2024-04-19T13:51:22.113Z,0.17
2024-04-19T13:53:50.772Z,0.10
2024-04-19T13:56:18.270Z,0.10
2024-04-19T13:58:46.040Z,0.17
2024-04-19T14:01:17.563Z,0.10
2024-04-19T14:03:45.351Z,0.10
2024-04-19T14:06:12.802Z,0.20
2024-04-19T14:08:40.046Z,0.10
2024-04-19T14:11:07.448Z,0.10
2024-04-19T14:13:34.860Z,0.20
2024-04-19T14:16:02.490Z,0.10
2024-04-19T14:18:29.887Z,0.20
2024-04-19T14:20:57.340Z,0.20
2024-04-19T14:23:24.667Z,0.10
2024-04-19T14:25:52.903Z,0.00
2024-04-19T14:28:20.179Z,0.10
2024-04-19T14:30:52.074Z,0.20
2024-04-19T14:33:19.834Z,0.40
2024-04-19T14:35:47.461Z,0.15
2024-04-19T14:38:14.835Z,0.10
2024-04-19T14:40:42.210Z,0.10
2024-04-19T14:43:09.900Z,0.10
2024-04-19T14:45:37.426Z,0.10
2024-04-19T14:48:05.781Z,0.30
2024-04-19T14:50:33.265Z,0.40
2024-04-19T14:53:08.643Z,0.00
2024-04-19T14:55:37.870Z,0.10
2024-04-19T14:58:05.452Z,0.10
2024-04-19T15:00:36.140Z,0.10
2024-04-19T15:03:03.609Z,0.20
2024-04-19T15:05:31.300Z,0.20
2024-04-19T15:08:00.327Z,0.10
2024-04-19T15:10:27.769Z,0.15
2024-04-19T15:12:55.179Z,0.20
2024-04-19T15:15:24.831Z,0.10
2024-04-19T15:17:54.425Z,0.20
2024-04-19T15:20:21.885Z,0.20
2024-04-19T15:22:50.177Z,0.03
2024-04-19T15:25:17.518Z,0.10
2024-04-19T15:27:44.829Z,0.30
2024-04-19T15:30:14.687Z,0.40
2024-04-19T15:32:42.382Z,0.20
2024-04-19T15:35:11.372Z,0.10
2024-04-19T15:37:38.911Z,0.30
2024-04-19T15:40:07.090Z,0.10
2024-04-19T15:42:34.736Z,0.40
2024-04-19T15:45:02.283Z,0.00
2024-04-19T15:47:29.734Z,0.10
2024-04-19T15:49:57.234Z,0.20
2024-04-19T15:52:28.462Z,0.25
2024-04-19T15:54:56.168Z,0.17
2024-04-19T15:57:28.228Z,0.05
2024-04-19T15:59:57.567Z,0.55
2024-04-19T16:02:24.985Z,0.50
2024-04-19T16:04:52.883Z,0.10
2024-04-19T16:07:21.170Z,0.15
2024-04-19T16:09:54.019Z,0.15
2024-04-19T16:12:23.571Z,0.10
2024-04-19T16:14:51.047Z,0.15
2024-04-19T16:17:19.396Z,0.10
2024-04-19T16:19:46.997Z,0.13
2024-04-19T16:22:14.436Z,0.13
2024-04-19T16:24:41.811Z,0.00
2024-04-19T16:27:10.157Z,0.10
2024-04-19T16:29:38.025Z,0.10
2024-04-19T16:32:05.573Z,0.20
2024-04-19T16:34:33.140Z,0.20
2024-04-19T16:37:00.523Z,0.03
2024-04-19T16:39:28.218Z,0.32
2024-04-19T16:41:55.519Z,0.22
2024-04-19T16:44:22.933Z,0.15
2024-04-19T16:46:50.272Z,0.30
2024-04-19T16:49:17.657Z,0.20
2024-04-19T16:51:45.120Z,0.10
2024-04-19T16:54:13.103Z,0.10
2024-04-19T16:56:43.019Z,0.30
2024-04-19T16:59:10.990Z,0.13
2024-04-19T17:01:39.237Z,0.10
2024-04-19T17:04:06.676Z,0.30
2024-04-19T17:06:35.634Z,0.35
2024-04-19T17:09:03.218Z,0.10
2024-04-19T17:11:30.747Z,0.60
2024-04-19T17:13:58.213Z,0.10
2024-04-19T17:16:25.552Z,0.00
2024-04-19T17:18:52.966Z,0.10
2024-04-19T17:21:20.271Z,0.15
2024-04-19T17:23:47.957Z,0.40
2024-04-19T17:26:16.159Z,0.10
2024-04-19T17:28:43.591Z,0.10
2024-04-19T17:31:10.765Z,0.10
2024-04-19T17:33:40.743Z,0.10
2024-04-19T17:36:08.383Z,0.20
2024-04-19T17:38:36.823Z,0.30
2024-04-19T17:41:05.642Z,0.17
2024-04-19T17:43:33.028Z,0.10
2024-04-19T17:46:00.482Z,0.20
2024-04-19T17:48:27.942Z,0.08
2024-04-19T17:50:55.463Z,0.10
2024-04-19T17:53:22.894Z,0.20
2024-04-19T17:55:50.646Z,0.30
2024-04-19T17:58:18.204Z,0.10
2024-04-19T18:00:49.140Z,0.10
2024-04-19T18:03:16.493Z,0.10
2024-04-19T18:05:44.079Z,0.20
2024-04-19T18:08:11.434Z,0.10
2024-04-19T18:10:38.824Z,0.10
2024-04-19T18:13:06.601Z,0.40
2024-04-19T18:15:34.267Z,0.40
2024-04-19T18:18:04.235Z,0.40
2024-04-19T18:20:31.895Z,0.20
2024-04-19T18:23:00.194Z,0.15
2024-04-19T18:25:27.587Z,0.10
2024-04-19T18:27:55.061Z,0.20
2024-04-19T18:30:22.525Z,0.40
2024-04-19T18:32:50.005Z,0.77
2024-04-19T18:35:17.491Z,0.20
2024-04-19T18:37:45.534Z,0.30
2024-04-19T18:40:12.475Z,0.70
2024-04-19T18:42:40.366Z,0.43
2024-04-19T18:45:07.850Z,0.30
2024-04-19T18:47:36.429Z,0.30
2024-04-19T18:50:03.845Z,0.10
2024-04-19T18:52:32.690Z,0.60
2024-04-19T18:55:02.513Z,0.10
2024-04-19T18:57:30.761Z,0.40
2024-04-19T19:00:00.500Z,0.20
2024-04-19T19:02:28.890Z,0.10
2024-04-19T19:04:57.208Z,0.20
2024-04-19T19:07:27.230Z,0.30
2024-04-19T19:10:04.494Z,0.20
2024-04-19T19:12:32.080Z,0.10
2024-04-19T19:14:59.433Z,0.30
2024-04-19T19:17:26.946Z,0.52
2024-04-19T19:19:57.829Z,0.20
2024-04-19T19:22:25.458Z,0.20
2024-04-19T19:24:52.975Z,0.10
2024-04-19T19:27:20.297Z,0.10
2024-04-19T19:29:48.220Z,0.10
2024-04-19T19:32:15.724Z,0.40
2024-04-19T19:34:42.561Z,0.30
2024-04-19T19:37:09.619Z,0.10
2024-04-19T19:39:38.733Z,0.10
2024-04-19T19:42:06.139Z,0.20
2024-04-19T19:44:34.910Z,0.10
2024-04-19T19:47:02.120Z,0.20
2024-04-19T19:49:29.390Z,0.30
2024-04-19T19:51:56.585Z,0.20
2024-04-19T19:54:23.892Z,0.20
2024-04-19T19:56:51.352Z,0.17
2024-04-19T19:59:38.188Z,0.20
2024-04-19T20:02:25.290Z,0.10
2024-04-19T20:05:12.253Z,0.20
2024-04-19T20:07:39.482Z,0.10
2024-04-19T20:10:06.688Z,0.40
2024-04-19T20:12:35.762Z,0.10
2024-04-19T20:15:03.120Z,0.20
2024-04-19T20:17:31.188Z,0.10
2024-04-19T20:19:58.891Z,0.20
2024-04-19T20:22:26.348Z,0.20
2024-04-19T20:24:54.020Z,0.10
2024-04-19T20:27:21.437Z,0.10
2024-04-19T20:29:49.210Z,0.10
2024-04-19T20:32:16.570Z,0.10
2024-04-19T20:34:46.463Z,0.22
2024-04-19T20:37:13.835Z,0.35
2024-04-19T20:39:41.314Z,0.30
2024-04-19T20:42:08.638Z,0.17
2024-04-19T20:44:36.014Z,0.13
2024-04-19T20:47:03.351Z,0.50
2024-04-19T20:49:30.829Z,0.20
2024-04-19T20:51:58.305Z,0.40
2024-04-19T20:54:25.776Z,0.40
2024-04-19T20:56:53.140Z,0.10
2024-04-19T20:59:20.456Z,0.20
2024-04-19T21:01:48.001Z,0.10
2024-04-19T21:04:15.637Z,0.80
2024-04-19T21:06:42.994Z,0.40
2024-04-19T21:09:12.448Z,0.10
2024-04-19T21:11:40.697Z,0.13
2024-04-19T21:14:08.781Z,0.30
2024-04-19T21:16:36.563Z,0.17
2024-04-19T21:19:04.674Z,0.30
2024-04-19T21:21:32.512Z,0.35
2024-04-19T21:23:59.866Z,0.30
2024-04-19T21:26:27.290Z,0.10
2024-04-19T21:28:55.633Z,0.28
2024-04-19T21:31:23.088Z,0.30
2024-04-19T21:33:50.900Z,0.20
2024-04-19T21:36:18.310Z,0.30
2024-04-19T21:38:47.893Z,0.00
2024-04-19T21:41:15.357Z,0.10
2024-04-19T21:43:43.328Z,0.17
2024-04-19T21:46:14.614Z,0.17
2024-04-19T21:48:42.004Z,0.53
2024-04-19T21:51:10.845Z,0.10
2024-04-19T21:53:38.673Z,0.20
2024-04-19T21:56:06.131Z,0.10
2024-04-19T21:58:34.729Z,0.40
2024-04-19T22:01:02.291Z,0.17
2024-04-19T22:03:32.872Z,0.35
2024-04-19T22:06:00.395Z,0.15
2024-04-19T22:08:27.781Z,0.30
2024-04-19T22:10:55.250Z,0.30
2024-04-19T22:13:22.577Z,0.40
2024-04-19T22:15:51.225Z,0.20
2024-04-19T22:18:19.086Z,0.10
2024-04-19T22:20:46.531Z,0.50
2024-04-19T22:23:13.934Z,0.20
2024-04-19T22:25:41.559Z,0.10
2024-04-19T22:28:11.779Z,0.20
2024-04-19T22:30:39.165Z,0.20
2024-04-19T22:33:06.760Z,0.30
2024-04-19T22:35:34.467Z,0.20
2024-04-19T22:38:01.830Z,0.30
2024-04-19T22:40:29.465Z,0.10
2024-04-19T22:42:58.099Z,0.10
2024-04-19T22:45:25.612Z,0.20
2024-04-19T22:47:53.065Z,0.32
2024-04-19T22:50:20.570Z,0.20
2024-04-19T22:52:47.971Z,0.20
2024-04-19T22:55:15.302Z,0.20
2024-04-19T22:57:42.645Z,0.20
2024-04-19T23:00:14.647Z,0.25
2024-04-19T23:02:42.082Z,0.20
2024-04-19T23:05:11.520Z,0.30
2024-04-19T23:07:38.868Z,0.20
2024-04-19T23:10:06.467Z,0.13
2024-04-19T23:12:34.365Z,0.10
2024-04-19T23:15:01.950Z,0.10
2024-04-19T23:17:29.735Z,0.57
2024-04-19T23:19:57.121Z,0.33
2024-04-19T23:22:24.272Z,0.20
2024-04-19T23:24:53.345Z,0.10
2024-04-19T23:27:23.209Z,0.20
2024-04-19T23:29:50.584Z,0.17
2024-04-19T23:32:18.218Z,0.20
2024-04-19T23:34:46.659Z,0.43
2024-04-19T23:37:13.591Z,0.25
2024-04-19T23:39:41.109Z,0.70
2024-04-19T23:42:11.820Z,0.30
2024-04-19T23:44:39.129Z,0.30
2024-04-19T23:47:09.151Z,0.28
2024-04-19T23:49:37.321Z,0.35
2024-04-19T23:52:06.691Z,0.68
2024-04-19T23:54:33.758Z,0.28
2024-04-19T23:57:00.710Z,0.10
2024-04-19T23:59:28.918Z,0.15
